関西国際空港の過去48時間の天気

関西国際空港 (Kansai intl)

現在時刻: 1/19 20:31 JST (1/19 11:31 UTC) 以下の時間は現地時間です。

過去48時間のMETAR気象情報
時間 風向 風速(m/s) 視程 気温(℃) 湿度(%) 気圧(hPa) 天気現象
19 20:00 2 10km以上 8 71 1020
19 19:30 南東 2 10km以上 9 66 1021
19 19:00 南東 2 10km以上 9 71 1021
19 18:30 不定 1 10km以上 10 62 1021
19 18:00 不定 1 10km以上 10 58 1021
19 17:30 2 10km以上 10 54 1021
19 17:00 2 10km以上 10 62 1021
19 16:30 2 10km以上 11 47 1021
19 16:00 1 10km以上 11 58 1021
19 15:30 2 10km以上 11 58 1022
19 15:00 2 10km以上 11 58 1022
19 14:30 北北西 2 10km以上 11 54 1022
19 14:00 不定 1 10km以上 11 58 1022
19 13:30 西北西 2 10km以上 11 58 1022
19 13:00 南南西 2 10km以上 11 54 1023
19 12:30 不定 2 10km以上 11 58 1024
19 12:00 3 10km以上 10 62 1024
19 11:30 南西 3 10km以上 10 66 1025
19 11:00 西 3 10km以上 10 66 1025
19 10:30 西南西 2 10km以上 10 66 1025
19 10:00 南南西 2 10km以上 9 66 1025
19 09:30 西 2 10km以上 9 66 1025
19 09:00 不定 1 10km以上 8 76 1025
19 08:30 西 2 10km以上 7 81 1025
19 08:00 西 3 10km以上 7 81 1025
19 07:30 西 4 10km以上 7 81 1025
19 07:00 西南西 3 10km以上 7 81 1025
19 06:30 4 10km以上 7 81 1024
19 06:00 南南東 3 10km以上 7 81 1024
19 05:30 3 10km以上 6 87 1024
19 05:00 3 10km以上 7 81 1024
19 04:30 南南東 3 10km以上 6 87 1024
19 04:00 南南東 2 10km以上 7 81 1024
19 03:30 3 10km以上 6 81 1024
19 03:00 南東 2 10km以上 6 81 1025
19 02:30 南東 3 10km以上 6 81 1024
19 02:00 1 10km以上 7 76 1024
19 01:30 南南西 2 10km以上 6 81 1024
19 01:00 3 10km以上 7 81 1025
19 00:30 南南東 3 10km以上 6 81 1025
19 00:00 南南東 2 10km以上 6 76 1025
18 23:30 南東 2 10km以上 6 76 1025
18 23:00 2 10km以上 7 70 1025
18 22:30 東北東 3 10km以上 6 76 1025
18 22:00 2 10km以上 6 70 1025
18 21:30 南東 3 10km以上 7 70 1025
18 21:00 南東 3 10km以上 7 81 1025
18 20:30 南東 3 10km以上 7 76 1025
18 20:00 東北東 3 10km以上 8 76 1025
18 19:30 東北東 2 10km以上 7 70 1025
18 19:00 東北東 2 10km以上 6 70 1025
18 18:30 不定 1 10km以上 7 70 1024
18 18:00 不定 1 10km以上 7 70 1024
18 17:30 東北東 3 10km以上 6 76 1024
18 17:00 東北東 2 10km以上 6 76 1023
18 16:30 東北東 4 10km以上 7 70 1023
18 16:00 北東 4 10km以上 8 61 1023
18 15:30 北北東 5 10km以上 8 61 1023
18 15:00 北北東 3 10km以上 8 61 1023
18 14:30 3 10km以上 8 61 1022
18 14:00 3 10km以上 8 57 1023
18 13:30 北北西 3 10km以上 8 57 1023
18 13:00 5 10km以上 9 53 1023
18 12:30 北西 2 10km以上 8 57 1024
18 12:00 北北東 2 10km以上 8 57 1024
18 11:30 3 10km以上 8 57 1024
18 11:00 5 10km以上 8 57 1024
18 10:30 5 10km以上 8 57 1024
18 10:00 5 10km以上 8 57 1024
18 09:30 6 10km以上 7 61 1024
18 09:00 6 10km以上 7 61 1024
18 08:30 6 10km以上 7 61 1023
18 08:00 5 10km以上 6 65 1023
18 07:30 5 10km以上 5 70 1023
18 07:00 6 10km以上 6 65 1022
18 06:30 6 10km以上 6 65 1022
18 06:00 7 10km以上 6 70 1022 周辺でしゅう雨
18 05:30 8 10km以上 6 70 1021 弱い雨
18 05:00 北北西 8 10km以上 6 76 1021 弱い雨
18 04:30 北北西 9 10km以上 6 76 1021 弱い雨
18 04:00 北北西 9 9000m 7 70 1020 弱い雨
18 03:30 北西 10 10km以上 7 70 1020
18 03:00 北西 10 10km以上 7 70 1020
18 02:30 北西 10 10km以上 7 66 1020
18 02:00 西北西 10 10km以上 7 66 1019
18 01:30 西北西 10 10km以上 7 66 1019
18 01:00 西北西 9 10km以上 8 61 1019
18 00:30 西北西 10 10km以上 8 57 1019
18 00:00 西北西 8 9000m 8 57 1019
17 23:30 西北西 9 10km以上 8 57 1019
17 23:00 西北西 9 10km以上 8 57 1019
17 22:30 西 9 10km以上 8 57 1018
17 22:00 西北西 8 10km以上 8 53 1018
17 21:30 西北西 11 10km以上 8 57 1018
17 21:00 西北西 11 10km以上 9 46 1017
RJBB 191100Z 10003KT 080V140 CAVOK 08/03 Q1020 NOSIG
RJBB 191030Z 13004KT CAVOK 09/03 Q1021 NOSIG
RJBB 191000Z 13004KT 080V160 CAVOK 09/04 Q1021 NOSIG
RJBB 190930Z VRB02KT CAVOK 10/03 Q1021 BECMG 21005KT
RJBB 190900Z VRB02KT 9999 FEW050 10/02 Q1021 NOSIG
RJBB 190830Z 35003KT 340V040 9999 FEW050 10/01 Q1021 NOSIG
RJBB 190800Z 35004KT 9999 FEW050 10/03 Q1021 NOSIG
RJBB 190730Z 35003KT 9999 FEW050 11/00 Q1021 NOSIG
RJBB 190700Z 01002KT 9999 FEW030 11/03 Q1021 NOSIG
RJBB 190630Z 36003KT 340V040 9999 FEW030 11/03 Q1022 NOSIG
RJBB 190600Z 35003KT 310V050 9999 FEW030 11/03 Q1022 BECMG 24005KT
RJBB 190530Z 34003KT 290V020 9999 FEW030 11/02 Q1022 BECMG 24005KT
RJBB 190500Z VRB02KT 9999 FEW030 11/03 Q1022 BECMG 24005KT
RJBB 190430Z 30003KT 9999 FEW030 11/03 Q1022 NOSIG
RJBB 190400Z 20003KT 120V280 9999 FEW030 11/02 Q1023 NOSIG
RJBB 190330Z VRB03KT 9999 FEW030 11/03 Q1024 BECMG 24005KT
RJBB 190300Z 19005KT 150V240 9999 FEW030 10/03 Q1024 NOSIG
RJBB 190230Z 23005KT 170V270 9999 FEW030 10/04 Q1025 NOSIG
RJBB 190200Z 26005KT 9999 FEW030 10/04 Q1025 NOSIG
RJBB 190130Z 24004KT 190V290 9999 FEW025 10/04 Q1025 NOSIG
RJBB 190100Z 20004KT 140V240 9999 FEW025 SCT/// 09/03 Q1025 NOSIG
RJBB 190030Z 26004KT 9999 FEW025 BKN/// 09/03 Q1025 NOSIG
RJBB 190000Z VRB02KT 9999 FEW025 08/04 Q1025 BECMG 29005KT
RJBB 182330Z 27003KT 230V310 9999 FEW025 07/04 Q1025 NOSIG
RJBB 182300Z 27005KT 9999 FEW025 07/04 Q1025 NOSIG
RJBB 182230Z 28007KT 9999 FEW025 07/04 Q1025 NOSIG
RJBB 182200Z 24006KT 210V270 9999 FEW020 07/04 Q1025 NOSIG
RJBB 182130Z 17008KT 130V200 9999 FEW020 07/04 Q1024 NOSIG
RJBB 182100Z 16006KT 9999 FEW020 07/04 Q1024 NOSIG
RJBB 182030Z AUTO 17005KT 9999 FEW025 SCT028 06/04 Q1024 NOSIG
RJBB 182000Z AUTO 19006KT 9999 NCD 07/04 Q1024 NOSIG
RJBB 181930Z AUTO 15005KT 9999 NCD 06/04 Q1024 BECMG 13004KT
RJBB 181900Z AUTO 15004KT 9999 FEW030 07/04 Q1024 NOSIG
RJBB 181830Z AUTO 17005KT 9999 FEW034 06/03 Q1024 BECMG 13004KT
RJBB 181800Z AUTO 14004KT 080V160 9999 NCD 06/03 Q1025 NOSIG
RJBB 181730Z AUTO 14005KT 9999 NCD 06/03 Q1024 BECMG 15005KT
RJBB 181700Z AUTO 18002KT 9999 NCD 07/03 Q1024 NOSIG
RJBB 181630Z AUTO 21004KT 9999 NCD 06/03 Q1024 NOSIG
RJBB 181600Z AUTO 17005KT 090V190 9999 NCD 07/04 Q1025 NOSIG
RJBB 181530Z AUTO 15005KT 9999 NCD 06/03 Q1025 NOSIG
RJBB 181500Z AUTO 15004KT 9999 NCD 06/02 Q1025 NOSIG
RJBB 181430Z AUTO 14004KT 9999 NCD 06/02 Q1025 NOSIG
RJBB 181400Z AUTO 08003KT 9999 NCD 07/02 Q1025 NOSIG
RJBB 181330Z 06005KT 9999 FEW025 06/02 Q1025 NOSIG
RJBB 181300Z 08004KT 9999 FEW025 06/01 Q1025 NOSIG
RJBB 181230Z 13006KT 9999 FEW025 07/02 Q1025 NOSIG
RJBB 181200Z 13006KT 9999 FEW025 07/04 Q1025 NOSIG
RJBB 181130Z 13006KT 9999 FEW025 SCT060 07/03 Q1025 NOSIG
RJBB 181100Z 06006KT 9999 FEW025 08/04 Q1025 NOSIG
RJBB 181030Z 06003KT 9999 FEW025 SCT060 07/02 Q1025 NOSIG
RJBB 181000Z 06003KT 020V100 9999 FEW025 SCT060 06/01 Q1025 NOSIG
RJBB 180930Z VRB02KT 9999 FEW025 SCT050 07/02 Q1024 BECMG 06005KT
RJBB 180900Z VRB02KT 9999 FEW025 SCT050 07/02 Q1024 BECMG 06005KT
RJBB 180830Z 07005KT 9999 FEW025 SCT060 06/02 Q1024 NOSIG
RJBB 180800Z 06004KT 9999 FEW025 06/02 Q1023 NOSIG
RJBB 180730Z 06007KT 9999 FEW025 07/02 Q1023 NOSIG
RJBB 180700Z 04007KT 9999 FEW025 08/01 Q1023 NOSIG
RJBB 180630Z 02009KT 9999 FEW025 SCT045 08/01 Q1023 NOSIG
RJBB 180600Z 03006KT 9999 FEW025 BKN045 08/01 Q1023 NOSIG
RJBB 180530Z 36005KT 9999 FEW030 BKN045 08/01 Q1022 NOSIG
RJBB 180500Z 35005KT 310V030 9999 FEW030 BKN060 08/00 Q1023 NOSIG
RJBB 180430Z 33005KT 280V020 9999 FEW025 SCT070 08/M00 Q1023 BECMG 31006KT
RJBB 180400Z 35009KT 300V010 9999 FEW025 BKN070 09/M00 Q1023 BECMG 31006KT
RJBB 180330Z 31004KT 240V350 9999 FEW025 BKN040 08/00 Q1024 NOSIG
RJBB 180300Z 02003KT 330V060 9999 FEW025 SCT045 08/M00 Q1024 BECMG 31005KT
RJBB 180230Z 35006KT 310V030 9999 FEW025 08/M00 Q1024 NOSIG
RJBB 180200Z 36009KT 9999 FEW025 08/00 Q1024 NOSIG
RJBB 180130Z 35010KT 9999 FEW025 08/M00 Q1024 NOSIG
RJBB 180100Z 36010KT 9999 FEW025 08/M00 Q1024 NOSIG
RJBB 180030Z 36011KT 9999 FEW020 BKN080 07/M00 Q1024 NOSIG
RJBB 180000Z 01011KT 9999 FEW020 SCT050 BKN080 07/M00 Q1024 NOSIG
RJBB 172330Z 35011KT 9999 FEW020 SCT050 BKN080 07/00 Q1023 NOSIG
RJBB 172300Z 35010KT 9999 FEW020 SCT040 BKN080 06/00 Q1023 NOSIG
RJBB 172230Z 35010KT 9999 FEW020 SCT040 BKN080 05/M00 Q1023 NOSIG
RJBB 172200Z 36011KT 9999 FEW015 BKN040 06/M00 Q1022 NOSIG
RJBB 172130Z 36012KT 9999 FEW015 BKN050 06/00 Q1022 NOSIG
RJBB 172100Z 36014KT 9999 VCSH FEW015 BKN050 06/01 Q1022 NOSIG
RJBB 172030Z AUTO 35015KT 9999 -RA FEW020 SCT050 BKN060 06/01 Q1021 NOSIG
RJBB 172000Z AUTO 34015KT 9999 -RA FEW021 SCT049 BKN060 06/02 Q1021 NOSIG
RJBB 171930Z AUTO 33017KT 9999 -RA BKN036 BKN042 OVC050 06/02 Q1021 NOSIG
RJBB 171900Z AUTO 34018KT 9000 -RA FEW026 SCT050 OVC060 07/02 Q1020 NOSIG
RJBB 171830Z AUTO 32019KT 9999 SCT028 SCT034 BKN060 07/02 Q1020 BECMG TL1900 33018KT
RJBB 171800Z AUTO 31020KT 9999 FEW027 BKN090 07/02 Q1020 BECMG TL1830 33018KT
RJBB 171730Z AUTO 31020KT 9999 SCT029 BKN033 BKN036 07/01 Q1020 BECMG TL1830 33018KT
RJBB 171700Z AUTO 30019KT 9999 FEW029 BKN080 07/01 Q1019 BECMG 33018KT
RJBB 171630Z AUTO 30020KT 9999 FEW030 SCT080 07/01 Q1019 BECMG 33018KT
RJBB 171600Z AUTO 30018KT 9999 FEW033 SCT060 BKN070 08/01 Q1019 NOSIG
RJBB 171530Z AUTO 30020KT 9999 FEW034 SCT060 OVC080 08/00 Q1019 NOSIG
RJBB 171500Z AUTO 30016KT 9000 SCT034 BKN070 OVC080 08/00 Q1019 NOSIG
RJBB 171430Z AUTO 30017KT 9999 FEW036 SCT060 BKN070 08/00 Q1019 NOSIG
RJBB 171400Z AUTO 30018KT 9999 NSC 08/M00 Q1019 NOSIG
RJBB 171330Z 28018KT 9999 FEW040 BKN080 08/M00 Q1018 NOSIG
RJBB 171300Z 29016KT 9999 FEW040 SCT080 08/M01 Q1018 NOSIG
RJBB 171230Z 30021KT 9999 FEW040 SCT080 08/M00 Q1018 NOSIG
RJBB 171200Z 30022KT 9999 FEW040 SCT070 09/M02 Q1017 NOSIG